Hauptseite
METAR-TAF:

METAR-TAF

Flughäfen :

Bahrain, Bahrain

Flughafen Bahrain

Breite: 26-16N, Länge: 050-39E, Höhe: 2 m

Beobachtung

Neuester Wetterbericht von vor 24 Minuten, um 16:00 UTC
Wind 9 kt aus Nordwest
Temperatur 21°C
Luftfeuchtigkeit 73%
Luftdruck 1023 hPa
Sichtweite 10 km oder mehr
keine Wolken unter 1500 m und keine Kumulonimbus oder Gewitterwolken

METAR: OBBI 181600Z 31009KT CAVOK 21/16 Q1023 NOSIG

Zeit: 19:24 (16:24 UTC)

Prognose

Neuester Wetterbericht von vor 11 Stunden und 24 Minuten, um 05:00 UTC
Gültige Prognose vom 18 um 06 UTC bis 19 um 12 UTC
Wind 10 kt aus Nord/Nordwest
Sichtweite 10 km oder mehr
Leicht bewölkt in der Höhe von 3000 ft

TAF: OBBI 180500Z 1806/1912 34010KT 9999 FEW030

Wetterbeobachtungen und Prognosen von mehr als 4000 Flughäfen (METAR und TAF Bericht).

Die verfügbaren Stationen werden durch gelbe und rote Markierungen auf der Karte dargestellt.

Führen Sie die Maus auf sie, um den Namen der Station zu sehen.

Darauf klicken, um die Beobachtung von Wetterbeobachtungen und Prognosen zu sehen.

Um die Karte zu ändern : klicken Sie auf den grünen Tasten mit einem schwarzen Kreuz Zum Vergrößern, auf den grünen Button mit einem Gedankenstrich zu verkleinern, oder auf die grünen Pfeile für benachbarte Karten.


METAR-TAF: